createdAt,value
2019-01-17T00:02:07.314Z,61.00
2019-01-17T00:04:54.364Z,61.60
2019-01-17T00:07:39.690Z,62.00
2019-01-17T00:10:15.801Z,62.30
2019-01-17T00:13:08.665Z,62.70
2019-01-17T00:15:49.093Z,62.70
2019-01-17T00:18:39.070Z,62.90
2019-01-17T00:21:26.052Z,62.50
2019-01-17T00:24:11.778Z,62.70
2019-01-17T00:26:57.343Z,63.50
2019-01-17T00:29:47.859Z,63.50
2019-01-17T00:32:52.777Z,63.50
2019-01-17T00:35:29.456Z,64.00
2019-01-17T00:38:07.960Z,64.60
2019-01-17T00:40:45.366Z,64.80
2019-01-17T00:43:34.937Z,64.80
2019-01-17T00:46:30.954Z,65.50
2019-01-17T00:49:16.670Z,65.50
2019-01-17T00:52:02.015Z,66.10
2019-01-17T00:55:04.042Z,66.40
2019-01-17T00:57:50.961Z,67.00
2019-01-17T01:00:37.972Z,67.20
2019-01-17T01:03:22.262Z,67.70
2019-01-17T01:06:15.050Z,68.10
2019-01-17T01:09:00.655Z,68.50
2019-01-17T01:11:44.600Z,68.70
2019-01-17T01:14:34.909Z,69.10
2019-01-17T01:17:27.405Z,68.50
2019-01-17T01:20:23.221Z,68.30
2019-01-17T01:23:13.149Z,67.20
2019-01-17T01:26:01.005Z,66.60
2019-01-17T01:28:42.750Z,66.40
2019-01-17T01:31:28.289Z,66.10
2019-01-17T01:34:30.394Z,65.70
2019-01-17T01:37:32.062Z,65.90
2019-01-17T01:40:13.197Z,65.90
2019-01-17T01:43:05.984Z,65.50
2019-01-17T01:45:51.549Z,65.70
2019-01-17T01:48:35.753Z,65.70
2019-01-17T01:51:21.286Z,65.30
2019-01-17T01:53:48.723Z,65.00
2019-01-17T01:56:16.140Z,64.80
2019-01-17T01:58:43.656Z,64.20
2019-01-17T02:01:11.073Z,63.70
2019-01-17T02:03:38.578Z,63.70
2019-01-17T02:06:06.080Z,63.10
2019-01-17T02:08:33.589Z,62.70
2019-01-17T02:11:01.174Z,62.90
2019-01-17T02:13:28.821Z,62.90
2019-01-17T02:15:56.243Z,63.10
2019-01-17T02:18:23.908Z,63.50
2019-01-17T02:20:51.393Z,63.70
2019-01-17T02:23:19.571Z,63.80
2019-01-17T02:25:47.107Z,63.50
2019-01-17T02:28:14.650Z,63.70
2019-01-17T02:30:42.097Z,63.50
2019-01-17T02:33:09.754Z,63.70
2019-01-17T02:35:37.322Z,63.80
2019-01-17T02:38:04.762Z,64.20
2019-01-17T02:40:32.178Z,64.20
2019-01-17T02:42:59.620Z,64.80
2019-01-17T02:45:27.250Z,65.00
2019-01-17T02:47:54.800Z,65.10
2019-01-17T02:50:22.347Z,65.50
2019-01-17T02:52:49.912Z,65.90
2019-01-17T02:55:17.481Z,65.90
2019-01-17T02:57:44.902Z,65.90
2019-01-17T03:00:14.709Z,66.10
2019-01-17T03:02:42.231Z,66.10
2019-01-17T03:05:09.935Z,66.10
2019-01-17T03:07:37.344Z,65.90
2019-01-17T03:10:07.757Z,66.10
2019-01-17T03:12:35.166Z,66.10
2019-01-17T03:15:02.740Z,65.90
2019-01-17T03:17:30.472Z,66.10
2019-01-17T03:19:57.934Z,65.90
2019-01-17T03:22:25.384Z,65.90
2019-01-17T03:24:52.848Z,65.90
2019-01-17T03:27:20.298Z,66.30
2019-01-17T03:29:47.749Z,66.30
2019-01-17T03:32:15.194Z,66.30
2019-01-17T03:34:42.730Z,66.30
2019-01-17T03:37:10.373Z,66.30
2019-01-17T03:39:37.783Z,66.40
2019-01-17T03:42:05.326Z,66.10
2019-01-17T03:44:32.789Z,66.30
2019-01-17T03:47:00.256Z,66.60
2019-01-17T03:49:27.559Z,66.80
2019-01-17T03:51:55.051Z,67.20
2019-01-17T03:54:22.601Z,67.60
2019-01-17T03:56:50.025Z,67.90
2019-01-17T03:59:17.529Z,68.30
2019-01-17T04:02:03.869Z,68.50
2019-01-17T04:04:50.270Z,68.70
2019-01-17T04:07:17.713Z,68.70
2019-01-17T04:09:45.387Z,68.90
2019-01-17T04:12:12.948Z,68.90
2019-01-17T04:14:40.530Z,69.10
2019-01-17T04:17:07.984Z,69.20
2019-01-17T04:19:35.474Z,69.40
2019-01-17T04:22:02.963Z,69.60
2019-01-17T04:24:30.427Z,69.80
2019-01-17T04:26:57.896Z,69.40
2019-01-17T04:29:27.304Z,69.40
2019-01-17T04:31:54.744Z,69.40
2019-01-17T04:34:23.301Z,69.10
2019-01-17T04:36:50.722Z,68.90
2019-01-17T04:39:18.181Z,68.90
2019-01-17T04:41:45.660Z,68.90
2019-01-17T04:44:13.201Z,68.70
2019-01-17T04:46:40.653Z,68.50
2019-01-17T04:49:08.224Z,68.30
2019-01-17T04:51:36.862Z,68.10
2019-01-17T04:54:04.361Z,67.70
2019-01-17T04:56:31.853Z,67.40
2019-01-17T04:58:59.590Z,67.20
2019-01-17T05:01:27.159Z,67.00
2019-01-17T05:03:54.584Z,67.00
2019-01-17T05:06:22.037Z,66.80
2019-01-17T05:08:49.505Z,66.40
2019-01-17T05:11:17.495Z,66.30
2019-01-17T05:13:45.081Z,66.40
2019-01-17T05:16:12.725Z,66.30
2019-01-17T05:18:40.458Z,66.30
2019-01-17T05:21:08.146Z,66.30
2019-01-17T05:23:35.584Z,66.40
2019-01-17T05:26:03.062Z,66.60
2019-01-17T05:28:30.655Z,66.30
2019-01-17T05:30:58.139Z,66.40
2019-01-17T05:33:25.676Z,66.60
2019-01-17T05:35:53.126Z,66.40
2019-01-17T05:38:20.574Z,66.10
2019-01-17T05:40:48.043Z,66.30
2019-01-17T05:43:15.624Z,66.40
2019-01-17T05:45:43.291Z,66.60
2019-01-17T05:48:10.867Z,66.80
2019-01-17T05:50:38.360Z,66.60
2019-01-17T05:53:05.807Z,66.60
2019-01-17T05:55:33.280Z,66.40
2019-01-17T05:58:00.822Z,66.80
2019-01-17T06:00:28.321Z,66.80
2019-01-17T06:02:55.790Z,66.60
2019-01-17T06:05:23.211Z,66.80
2019-01-17T06:07:50.693Z,66.80
2019-01-17T06:10:18.426Z,66.80
2019-01-17T06:12:45.944Z,66.60
2019-01-17T06:15:15.259Z,66.40
2019-01-17T06:17:42.776Z,66.30
2019-01-17T06:20:11.826Z,66.30
2019-01-17T06:22:39.342Z,66.40
2019-01-17T06:25:07.045Z,66.40
2019-01-17T06:27:34.526Z,66.60
2019-01-17T06:30:02.021Z,66.40
2019-01-17T06:32:30.640Z,66.40
2019-01-17T06:34:58.109Z,66.40
2019-01-17T06:37:25.810Z,66.30
2019-01-17T06:39:53.286Z,66.10
2019-01-17T06:42:20.882Z,66.30
2019-01-17T06:44:48.405Z,66.30
2019-01-17T06:47:15.943Z,66.10
2019-01-17T06:49:43.501Z,65.90
2019-01-17T06:52:11.024Z,65.90
2019-01-17T06:54:38.725Z,66.30
2019-01-17T06:57:06.362Z,66.60
2019-01-17T06:59:33.837Z,66.40
2019-01-17T07:02:01.253Z,66.60
2019-01-17T07:04:28.698Z,66.60
2019-01-17T07:06:56.094Z,66.60
2019-01-17T07:09:23.725Z,66.60
2019-01-17T07:11:51.222Z,66.80
2019-01-17T07:14:18.745Z,67.00
2019-01-17T07:16:46.168Z,67.20
2019-01-17T07:19:13.595Z,67.00
2019-01-17T07:21:41.098Z,66.80
2019-01-17T07:24:08.472Z,66.80
2019-01-17T07:26:35.941Z,66.80
2019-01-17T07:29:03.479Z,66.80
2019-01-17T07:31:30.927Z,67.00
2019-01-17T07:33:58.392Z,67.20
2019-01-17T07:36:25.833Z,66.80
2019-01-17T07:38:53.394Z,67.00
2019-01-17T07:41:20.902Z,66.80
2019-01-17T07:43:48.433Z,66.80
2019-01-17T07:46:15.912Z,67.40
2019-01-17T07:48:43.317Z,67.70
2019-01-17T07:51:10.883Z,68.10
2019-01-17T07:53:38.426Z,68.30
2019-01-17T07:56:05.889Z,67.90
2019-01-17T07:58:33.343Z,68.10
2019-01-17T08:01:00.789Z,68.10
2019-01-17T08:03:28.236Z,68.10
2019-01-17T08:05:55.730Z,67.90
2019-01-17T08:08:23.202Z,67.70
2019-01-17T08:10:50.901Z,67.60
2019-01-17T08:13:18.473Z,67.70
2019-01-17T08:15:46.088Z,67.70
2019-01-17T08:18:18.688Z,67.70
2019-01-17T08:20:42.896Z,68.10
2019-01-17T08:23:10.469Z,68.70
2019-01-17T08:25:37.924Z,68.90
2019-01-17T08:28:05.421Z,68.70
2019-01-17T08:30:32.861Z,68.50
2019-01-17T08:33:00.331Z,68.70
2019-01-17T08:35:27.774Z,68.70
2019-01-17T08:37:55.252Z,69.10
2019-01-17T08:40:27.934Z,68.70
2019-01-17T08:42:55.915Z,68.90
2019-01-17T08:45:24.730Z,69.10
2019-01-17T08:47:52.297Z,69.20
2019-01-17T08:50:20.095Z,69.20
2019-01-17T08:52:47.743Z,69.60
2019-01-17T08:55:15.292Z,70.20
2019-01-17T08:57:42.849Z,70.50
2019-01-17T09:00:14.016Z,70.50
2019-01-17T09:02:42.521Z,71.10
2019-01-17T09:05:09.985Z,71.30
2019-01-17T09:07:37.516Z,71.50
2019-01-17T09:10:06.248Z,71.10
2019-01-17T09:12:33.956Z,70.90
2019-01-17T09:15:01.419Z,71.10
2019-01-17T09:17:28.870Z,71.50
2019-01-17T09:19:56.481Z,71.50
2019-01-17T09:22:24.206Z,71.30
2019-01-17T09:24:51.761Z,71.50
2019-01-17T09:27:19.231Z,71.50
2019-01-17T09:29:46.781Z,71.30
2019-01-17T09:32:14.440Z,71.70
2019-01-17T09:34:41.980Z,71.70
2019-01-17T09:37:09.434Z,71.80
2019-01-17T09:39:36.908Z,71.80
2019-01-17T09:42:04.346Z,71.70
2019-01-17T09:44:31.823Z,71.50
2019-01-17T09:46:59.446Z,70.90
2019-01-17T09:49:27.035Z,70.90
2019-01-17T09:51:54.507Z,70.90
2019-01-17T09:54:21.980Z,70.90
2019-01-17T09:56:49.619Z,70.70
2019-01-17T09:59:17.222Z,70.90
2019-01-17T10:01:44.742Z,71.10
2019-01-17T10:04:12.255Z,71.10
2019-01-17T10:06:39.809Z,71.80
2019-01-17T10:09:07.279Z,72.20
2019-01-17T10:11:34.781Z,71.50
2019-01-17T10:14:02.228Z,71.80
2019-01-17T10:16:47.835Z,72.00
2019-01-17T10:19:44.734Z,72.00
2019-01-17T10:22:59.652Z,71.80
2019-01-17T10:26:10.411Z,72.20
2019-01-17T10:29:21.118Z,72.40
2019-01-17T10:32:36.574Z,72.80
2019-01-17T10:35:25.295Z,72.20
2019-01-17T10:38:11.334Z,72.60
2019-01-17T10:41:27.433Z,72.20
2019-01-17T10:44:29.259Z,71.50
2019-01-17T10:47:20.251Z,70.20
2019-01-17T10:50:16.034Z,70.90
2019-01-17T10:53:27.990Z,70.90
2019-01-17T10:56:27.733Z,70.00
2019-01-17T10:59:11.073Z,68.10
2019-01-17T11:01:56.656Z,67.90
2019-01-17T11:05:33.176Z,67.40
2019-01-17T11:08:56.885Z,68.30
2019-01-17T11:11:53.952Z,68.70
2019-01-17T11:15:14.998Z,68.90
2019-01-17T11:18:48.104Z,69.40
2019-01-17T11:21:45.117Z,69.10
2019-01-17T11:24:47.535Z,70.40
2019-01-17T11:27:51.228Z,70.40
2019-01-17T11:30:59.306Z,69.80
2019-01-17T11:33:52.862Z,69.20
2019-01-17T11:36:48.074Z,69.80
2019-01-17T11:39:29.785Z,71.80
2019-01-17T11:42:33.809Z,72.40
2019-01-17T11:45:22.853Z,72.40
2019-01-17T11:48:04.454Z,73.20
2019-01-17T11:51:12.177Z,73.20
2019-01-17T11:53:56.744Z,73.90
2019-01-17T11:56:49.394Z,73.90
2019-01-17T11:59:48.651Z,75.40
2019-01-17T12:02:39.403Z,74.50
2019-01-17T12:05:06.209Z,74.10
2019-01-17T12:07:33.656Z,74.10
2019-01-17T12:10:01.129Z,74.80
2019-01-17T12:12:28.603Z,74.60
2019-01-17T12:14:57.961Z,74.50
2019-01-17T12:17:25.448Z,75.40
2019-01-17T12:19:52.848Z,75.00
2019-01-17T12:22:20.489Z,74.80
2019-01-17T12:24:47.937Z,75.20
2019-01-17T12:27:15.377Z,75.00
2019-01-17T12:29:42.884Z,74.80
2019-01-17T12:32:10.440Z,74.50
2019-01-17T12:34:37.940Z,73.20
2019-01-17T12:37:05.456Z,73.90
2019-01-17T12:39:33.045Z,73.50
2019-01-17T12:42:00.467Z,73.90
2019-01-17T12:44:27.937Z,73.70
2019-01-17T12:46:55.377Z,73.00
2019-01-17T12:49:23.094Z,71.70
2019-01-17T12:51:50.674Z,71.70
2019-01-17T12:54:18.122Z,71.30
2019-01-17T12:56:45.640Z,70.90
2019-01-17T12:59:13.170Z,69.80
2019-01-17T13:01:40.622Z,70.00
2019-01-17T13:04:08.107Z,68.50
2019-01-17T13:06:35.536Z,68.30
2019-01-17T13:09:06.497Z,68.50
2019-01-17T13:11:34.070Z,69.10
2019-01-17T13:14:01.630Z,68.30
2019-01-17T13:16:29.127Z,67.00
2019-01-17T13:18:56.676Z,67.00
2019-01-17T13:21:24.205Z,65.90
2019-01-17T13:23:51.669Z,65.30
2019-01-17T13:26:19.176Z,62.90
2019-01-17T13:28:46.627Z,63.10
2019-01-17T13:31:14.108Z,62.90
2019-01-17T13:33:41.530Z,62.00
2019-01-17T13:36:11.954Z,58.90
2019-01-17T13:38:39.513Z,59.50
2019-01-17T13:41:07.243Z,56.60
2019-01-17T13:43:34.787Z,56.90
2019-01-17T13:46:02.473Z,56.70
2019-01-17T13:48:29.933Z,55.70
2019-01-17T13:50:57.449Z,55.20
2019-01-17T13:53:24.936Z,54.60
2019-01-17T13:55:52.446Z,54.80
2019-01-17T13:58:20.713Z,54.00
2019-01-17T14:00:48.238Z,54.00
2019-01-17T14:03:17.699Z,53.70
2019-01-17T14:05:45.245Z,54.30
2019-01-17T14:08:12.678Z,54.00
2019-01-17T14:10:40.141Z,54.80
2019-01-17T14:13:07.664Z,54.60
2019-01-17T14:15:35.240Z,52.90
2019-01-17T14:18:02.815Z,52.90
2019-01-17T14:20:30.349Z,54.20
2019-01-17T14:22:57.981Z,55.20
2019-01-17T14:25:25.444Z,55.80
2019-01-17T14:27:52.928Z,56.60
2019-01-17T14:30:22.947Z,58.00
2019-01-17T14:32:51.514Z,59.00
2019-01-17T14:35:19.024Z,65.00
2019-01-17T14:37:46.741Z,67.00
2019-01-17T14:40:14.554Z,66.80
2019-01-17T14:42:42.052Z,67.40
2019-01-17T14:45:12.216Z,67.70
2019-01-17T14:47:39.665Z,67.70
2019-01-17T14:50:10.436Z,68.10
2019-01-17T14:52:38.006Z,69.40
2019-01-17T14:55:05.845Z,70.50
2019-01-17T14:57:33.620Z,70.40
2019-01-17T15:00:01.079Z,70.40
2019-01-17T15:02:29.743Z,70.70
2019-01-17T15:04:57.294Z,70.50
2019-01-17T15:07:24.777Z,71.10
2019-01-17T15:09:52.197Z,69.60
2019-01-17T15:12:19.665Z,70.70
2019-01-17T15:14:47.229Z,70.00
2019-01-17T15:17:14.957Z,69.10
2019-01-17T15:19:42.393Z,69.10
2019-01-17T15:22:09.877Z,68.90
2019-01-17T15:24:37.403Z,69.20
2019-01-17T15:27:04.832Z,69.20
2019-01-17T15:29:32.422Z,69.10
2019-01-17T15:31:59.899Z,69.20
2019-01-17T15:34:27.466Z,69.10
2019-01-17T15:36:54.936Z,72.20
2019-01-17T15:39:22.417Z,71.10
2019-01-17T15:41:49.906Z,71.30
2019-01-17T15:44:17.447Z,71.10
2019-01-17T15:46:44.877Z,72.00
2019-01-17T15:49:12.539Z,71.80
2019-01-17T15:51:40.046Z,72.20
2019-01-17T15:54:07.635Z,71.80
2019-01-17T15:56:35.077Z,72.00
2019-01-17T15:59:02.564Z,71.50
2019-01-17T16:01:30.011Z,70.90
2019-01-17T16:03:57.516Z,70.50
2019-01-17T16:06:25.048Z,69.80
2019-01-17T16:08:52.648Z,70.00
2019-01-17T16:11:20.153Z,70.70
2019-01-17T16:13:47.679Z,67.70
2019-01-17T16:16:15.336Z,67.60
2019-01-17T16:18:42.997Z,68.30
2019-01-17T16:21:10.516Z,69.40
2019-01-17T16:23:38.055Z,70.00
2019-01-17T16:26:05.631Z,70.90
2019-01-17T16:28:33.105Z,71.80
2019-01-17T16:31:00.656Z,72.60
2019-01-17T16:33:28.158Z,73.20
2019-01-17T16:35:55.598Z,73.70
2019-01-17T16:38:23.069Z,73.90
2019-01-17T16:40:50.637Z,73.90
2019-01-17T16:43:20.208Z,74.30
2019-01-17T16:45:47.641Z,74.10
2019-01-17T16:48:15.265Z,74.80
2019-01-17T16:50:42.931Z,74.30
2019-01-17T16:53:10.533Z,75.00
2019-01-17T16:55:38.047Z,75.20
2019-01-17T16:58:05.874Z,74.60
2019-01-17T17:00:44.212Z,74.10
2019-01-17T17:03:11.886Z,74.10
2019-01-17T17:05:39.715Z,72.40
2019-01-17T17:08:07.216Z,72.80
2019-01-17T17:10:34.741Z,72.80
2019-01-17T17:13:02.229Z,72.40
2019-01-17T17:15:29.981Z,72.00
2019-01-17T17:17:57.417Z,71.50
2019-01-17T17:20:25.320Z,70.50
2019-01-17T17:22:52.784Z,70.90
2019-01-17T17:25:20.322Z,70.70
2019-01-17T17:27:47.850Z,71.50
2019-01-17T17:30:17.545Z,72.40
2019-01-17T17:32:45.141Z,74.80
2019-01-17T17:35:13.086Z,77.60
2019-01-17T17:37:40.678Z,80.00
2019-01-17T17:40:17.071Z,82.10
2019-01-17T17:42:44.589Z,82.30
2019-01-17T17:45:12.054Z,84.10
2019-01-17T17:47:39.669Z,84.10
2019-01-17T17:50:08.665Z,85.50
2019-01-17T17:52:36.513Z,85.50
2019-01-17T17:55:04.592Z,85.80
2019-01-17T17:57:32.117Z,85.50
2019-01-17T17:59:59.593Z,85.50
2019-01-17T18:02:32.796Z,86.60
2019-01-17T18:05:00.587Z,86.40
2019-01-17T18:07:28.157Z,86.40
2019-01-17T18:09:56.492Z,86.40
2019-01-17T18:12:24.161Z,86.20
2019-01-17T18:14:51.644Z,84.70
2019-01-17T18:17:19.329Z,85.30
2019-01-17T18:19:46.993Z,85.60
2019-01-17T18:22:14.558Z,85.50
2019-01-17T18:24:42.394Z,84.10
2019-01-17T18:27:09.994Z,84.10
2019-01-17T18:29:37.481Z,84.00
2019-01-17T18:32:05.705Z,83.00
2019-01-17T18:34:33.209Z,82.50
2019-01-17T18:37:00.808Z,83.00
2019-01-17T18:39:28.304Z,82.50
2019-01-17T18:41:55.809Z,82.70
2019-01-17T18:44:23.400Z,81.20
2019-01-17T18:46:51.314Z,81.70
2019-01-17T18:49:19.055Z,80.40
2019-01-17T18:51:46.529Z,81.00
2019-01-17T18:54:15.145Z,80.60
2019-01-17T18:56:43.013Z,80.60
2019-01-17T18:59:10.782Z,81.50
2019-01-17T19:01:38.327Z,81.90
2019-01-17T19:04:06.025Z,81.90
2019-01-17T19:06:33.573Z,81.50
2019-01-17T19:09:01.192Z,81.40
2019-01-17T19:11:29.329Z,80.60
2019-01-17T19:13:56.858Z,80.80
2019-01-17T19:16:24.380Z,80.60
2019-01-17T19:18:52.221Z,80.40
2019-01-17T19:21:19.769Z,80.60
2019-01-17T19:23:47.285Z,80.60
2019-01-17T19:26:14.996Z,80.60
2019-01-17T19:28:42.670Z,80.40
2019-01-17T19:31:10.492Z,80.40
2019-01-17T19:33:38.013Z,80.20
2019-01-17T19:36:05.804Z,80.40
2019-01-17T19:38:33.341Z,79.30
2019-01-17T19:41:00.863Z,79.10
2019-01-17T19:43:28.353Z,78.90
2019-01-17T19:45:57.187Z,78.20
2019-01-17T19:48:24.813Z,77.60
2019-01-17T19:50:52.319Z,77.10
2019-01-17T19:53:19.793Z,75.90
2019-01-17T19:55:47.702Z,76.50
2019-01-17T19:58:15.394Z,76.30
2019-01-17T20:00:42.897Z,76.90
2019-01-17T20:03:10.648Z,76.70
2019-01-17T20:05:38.453Z,77.10
2019-01-17T20:08:06.124Z,76.90
2019-01-17T20:10:35.111Z,77.30
2019-01-17T20:13:02.824Z,76.50
2019-01-17T20:15:30.490Z,77.30
2019-01-17T20:17:58.212Z,76.50
2019-01-17T20:20:31.841Z,77.10
2019-01-17T20:22:55.573Z,77.30
2019-01-17T20:25:23.202Z,77.40
2019-01-17T20:27:51.022Z,76.90
2019-01-17T20:30:20.518Z,77.30
2019-01-17T20:32:48.526Z,77.80
2019-01-17T20:35:16.294Z,78.40
2019-01-17T20:37:45.153Z,77.60
2019-01-17T20:40:15.448Z,77.40
2019-01-17T20:42:45.107Z,77.60
2019-01-17T20:45:13.055Z,78.70
2019-01-17T20:47:40.894Z,78.40
2019-01-17T20:50:11.150Z,78.70
2019-01-17T20:52:39.832Z,78.70
2019-01-17T20:55:08.297Z,79.30
2019-01-17T20:57:35.877Z,79.50
2019-01-17T21:00:08.319Z,79.90
2019-01-17T21:02:36.231Z,80.20
2019-01-17T21:05:05.038Z,80.00
2019-01-17T21:07:32.647Z,79.70
2019-01-17T21:10:00.217Z,80.00
2019-01-17T21:12:27.713Z,79.10
2019-01-17T21:14:56.647Z,78.40
2019-01-17T21:17:24.295Z,78.20
2019-01-17T21:19:51.903Z,78.60
2019-01-17T21:22:19.369Z,79.10
2019-01-17T21:24:47.102Z,78.70
2019-01-17T21:27:15.042Z,78.70
2019-01-17T21:29:42.671Z,79.10
2019-01-17T21:32:10.120Z,79.30
2019-01-17T21:34:37.709Z,79.30
2019-01-17T21:37:05.523Z,78.70
2019-01-17T21:39:33.077Z,78.70
2019-01-17T21:42:00.560Z,79.10
2019-01-17T21:44:28.119Z,79.70
2019-01-17T21:46:55.602Z,79.50
2019-01-17T21:49:23.205Z,80.00
2019-01-17T21:51:50.781Z,80.60
2019-01-17T21:54:18.533Z,81.00
2019-01-17T21:56:46.008Z,81.90
2019-01-17T21:59:13.462Z,82.50
2019-01-17T22:01:41.041Z,82.70
2019-01-17T22:04:08.646Z,83.20
2019-01-17T22:06:49.980Z,83.60
2019-01-17T22:09:17.541Z,85.10
2019-01-17T22:11:44.996Z,83.20
2019-01-17T22:14:12.466Z,84.50
2019-01-17T22:16:39.979Z,86.00
2019-01-17T22:19:07.549Z,85.50
2019-01-17T22:21:34.960Z,87.30
2019-01-17T22:24:02.494Z,88.40
2019-01-17T22:26:29.977Z,89.20
2019-01-17T22:29:02.432Z,89.90
2019-01-17T22:31:26.695Z,89.70
2019-01-17T22:33:54.102Z,90.30
2019-01-17T22:36:21.570Z,90.90
2019-01-17T22:38:48.997Z,91.10
2019-01-17T22:41:16.754Z,90.80
2019-01-17T22:43:44.988Z,90.70
2019-01-17T22:46:12.452Z,90.80
2019-01-17T22:48:39.922Z,90.60
2019-01-17T22:51:15.480Z,90.70
2019-01-17T22:53:43.816Z,90.50
2019-01-17T22:56:11.465Z,90.30
2019-01-17T22:58:38.927Z,89.70
2019-01-17T23:01:18.469Z,90.10
2019-01-17T23:03:46.908Z,89.20
2019-01-17T23:06:14.506Z,88.60
2019-01-17T23:08:41.943Z,88.80
2019-01-17T23:11:09.474Z,87.90
2019-01-17T23:13:37.090Z,87.70
2019-01-17T23:16:05.188Z,88.10
2019-01-17T23:18:33.650Z,87.30
2019-01-17T23:21:01.061Z,86.60
2019-01-17T23:23:28.586Z,86.40
2019-01-17T23:25:56.140Z,86.20
2019-01-17T23:28:23.635Z,86.80
2019-01-17T23:30:51.037Z,86.60
2019-01-17T23:33:18.589Z,85.60
2019-01-17T23:35:46.021Z,85.50
2019-01-17T23:38:13.663Z,85.80
2019-01-17T23:40:41.219Z,86.40
2019-01-17T23:43:09.010Z,86.20
2019-01-17T23:45:37.520Z,86.90
2019-01-17T23:48:04.983Z,86.80
2019-01-17T23:50:32.377Z,86.40
2019-01-17T23:52:59.957Z,86.40
2019-01-17T23:55:27.478Z,86.40
2019-01-17T23:57:54.930Z,86.40
